Time;durP1;ratioP1;P1;durP2;ratioP2;P2;SDS_P1;SDS_P2;PMS_P1;PMS_P2;Temp;Humidity;BMP_temperature;BMP_pressure;BME280_temperature;BME280_humidity;BME280_pressure;Samples;Min_cycle;Max_cycle;Signal;HPM_P1;HPM_P2
2022/01/25 00:10:39;;;;;;;60.42;43.92;;;3.90;99.90;;;;;;5076532;28;20082;-53
2022/01/25 00:26:40;;;;;;;60.75;42.70;;;3.90;99.90;;;;;;5081504;28;21480;-55
2022/01/25 00:29:14;;;;;;;66.68;46.22;;;3.90;99.90;;;;;;5082081;28;20096;-54
2022/01/25 00:31:41;;;;;;;63.03;45.83;;;3.90;99.90;;;;;;5081135;28;20100;-53
2022/01/25 00:34:07;;;;;;;61.25;42.60;;;3.90;99.90;;;;;;5076226;28;20490;-53
2022/01/25 00:36:34;;;;;;;59.83;44.35;;;3.90;99.90;;;;;;5079335;28;20041;-51
2022/01/25 00:39:01;;;;;;;60.50;44.42;;;3.80;99.90;;;;;;5081445;28;20044;-54
2022/01/25 00:41:27;;;;;;;58.05;43.13;;;3.80;99.90;;;;;;5081726;28;20056;-52
2022/01/25 00:43:53;;;;;;;58.58;43.67;;;3.80;99.90;;;;;;5088062;28;20024;-52
2022/01/25 00:46:21;;;;;;;60.35;42.63;;;3.80;99.90;;;;;;5085511;28;20048;-51
2022/01/25 00:48:51;;;;;;;59.72;44.33;;;3.80;99.90;;;;;;5085656;28;20070;-53
2022/01/25 00:51:24;;;;;;;61.42;43.97;;;3.80;99.90;;;;;;5081525;28;20041;-53
2022/01/25 00:56:21;;;;;;;58.83;42.75;;;3.80;99.90;;;;;;5086057;28;20052;-54
2022/01/25 00:58:47;;;;;;;61.45;45.40;;;3.80;99.90;;;;;;5080092;28;20399;-52
2022/01/25 01:01:13;;;;;;;63.25;44.40;;;3.80;99.90;;;;;;5084020;28;20056;-54
2022/01/25 01:03:38;;;;;;;59.10;41.78;;;3.80;99.90;;;;;;5085223;28;20036;-49
2022/01/25 01:06:05;;;;;;;62.90;45.05;;;3.80;99.90;;;;;;5082837;28;20137;-54
2022/01/25 01:08:32;;;;;;;60.30;44.45;;;3.70;99.90;;;;;;5082750;28;20041;-50
2022/01/25 01:10:59;;;;;;;58.35;42.17;;;3.70;99.90;;;;;;5083371;28;20045;-52
2022/01/25 01:30:07;;;;;;;57.38;41.75;;;3.70;99.90;;;;;;5082933;28;20076;-51
2022/01/25 01:35:37;;;;;;;60.60;42.92;;;3.70;99.90;;;;;;5084585;28;20108;-50
2022/01/25 01:40:58;;;;;;;49.05;37.15;;;3.60;99.90;;;;;;5079783;28;20041;-53
2022/01/25 01:43:33;;;;;;;52.22;39.35;;;3.60;99.90;;;;;;5077088;28;20158;-51
2022/01/25 01:48:50;;;;;;;51.50;36.70;;;3.60;99.90;;;;;;5079774;28;20041;-52
2022/01/25 01:51:25;;;;;;;54.50;40.33;;;3.60;99.90;;;;;;5080925;28;20045;-53
2022/01/25 01:53:51;;;;;;;55.63;40.58;;;3.70;99.90;;;;;;5078185;28;20037;-51
2022/01/25 01:56:16;;;;;;;54.55;40.85;;;3.60;99.90;;;;;;5077286;28;20036;-52
2022/01/25 01:58:42;;;;;;;56.80;41.40;;;3.60;99.90;;;;;;5072877;28;20055;-51
2022/01/25 02:01:13;;;;;;;57.17;42.03;;;3.60;99.90;;;;;;5081418;28;20044;-52
2022/01/25 02:03:39;;;;;;;58.88;42.47;;;3.70;99.90;;;;;;5080930;28;20037;-49
2022/01/25 02:06:05;;;;;;;59.85;43.00;;;3.60;99.90;;;;;;5081993;28;20058;-51
2022/01/25 02:08:30;;;;;;;59.90;44.05;;;3.70;99.90;;;;;;5082802;28;20049;-52
2022/01/25 02:10:56;;;;;;;57.63;41.60;;;3.70;99.90;;;;;;5080735;28;20100;-53
2022/01/25 02:13:22;;;;;;;59.17;41.80;;;3.70;99.90;;;;;;5083524;28;20083;-52
2022/01/25 02:15:49;;;;;;;57.15;41.88;;;3.70;99.90;;;;;;5082393;28;20045;-49
2022/01/25 02:23:34;;;;;;;53.85;38.67;;;3.70;99.90;;;;;;5082331;28;20117;-53
2022/01/25 02:26:03;;;;;;;51.72;38.17;;;3.60;99.90;;;;;;5081966;28;20052;-53
2022/01/25 02:28:31;;;;;;;45.33;33.55;;;3.70;99.90;;;;;;5079710;28;20048;-52
2022/01/25 02:30:58;;;;;;;51.78;36.83;;;3.70;99.90;;;;;;5079067;28;20041;-54
2022/01/25 02:33:23;;;;;;;48.22;34.55;;;3.70;99.90;;;;;;5081916;28;20067;-54
2022/01/25 02:35:49;;;;;;;50.03;37.10;;;3.70;99.90;;;;;;5078855;28;20395;-55
2022/01/25 02:38:21;;;;;;;51.42;38.92;;;3.70;99.90;;;;;;5083298;28;20099;-51
2022/01/25 02:40:47;;;;;;;52.95;38.25;;;3.70;99.90;;;;;;5082064;28;20044;-53
2022/01/25 02:43:16;;;;;;;55.83;39.03;;;3.70;99.90;;;;;;5081055;28;20037;-52
2022/01/25 02:45:45;;;;;;;48.42;34.95;;;3.70;99.90;;;;;;5074117;28;20052;-53
2022/01/25 02:48:30;;;;;;;44.92;33.10;;;3.70;99.90;;;;;;5083154;28;20041;-53
2022/01/25 02:51:04;;;;;;;48.17;34.38;;;3.70;99.90;;;;;;5080096;28;20028;-55
2022/01/25 02:53:30;;;;;;;49.90;36.33;;;3.70;99.90;;;;;;5080628;28;20056;-55
2022/01/25 02:55:56;;;;;;;54.78;38.17;;;3.70;99.90;;;;;;5084892;28;20045;-54
2022/01/25 02:58:22;;;;;;;54.03;37.38;;;3.70;99.90;;;;;;5081784;28;20043;-56
2022/01/25 03:00:47;;;;;;;56.17;38.97;;;3.70;99.90;;;;;;5081381;28;20046;-54
2022/01/25 03:03:13;;;;;;;56.15;40.60;;;3.70;99.90;;;;;;5083640;28;20044;-54
2022/01/25 03:05:39;;;;;;;62.65;44.33;;;3.70;99.90;;;;;;5082845;28;20041;-53
2022/01/25 03:08:04;;;;;;;59.92;41.33;;;3.70;99.90;;;;;;5080704;28;20067;-53
2022/01/25 03:10:38;;;;;;;59.85;42.00;;;3.70;99.90;;;;;;5083237;28;20033;-52
2022/01/25 03:13:06;;;;;;;63.75;42.63;;;3.70;99.90;;;;;;5082108;28;20037;-52
2022/01/25 03:18:25;;;;;;;60.63;41.63;;;3.70;99.90;;;;;;5083821;28;20048;-54
2022/01/25 03:20:59;;;;;;;61.47;41.35;;;3.70;99.90;;;;;;5082725;28;20041;-54
2022/01/25 03:23:25;;;;;;;58.47;40.05;;;3.70;99.90;;;;;;5084848;28;20090;-54
2022/01/25 03:25:51;;;;;;;57.85;39.42;;;3.70;99.90;;;;;;5082501;28;20024;-52
2022/01/25 03:28:18;;;;;;;54.55;38.20;;;3.70;99.90;;;;;;5083000;28;20105;-53
2022/01/25 03:30:45;;;;;;;57.17;39.08;;;3.70;99.90;;;;;;5083026;28;20024;-55
2022/01/25 03:33:11;;;;;;;57.35;39.30;;;3.70;99.90;;;;;;5082844;28;20541;-53
2022/01/25 03:35:37;;;;;;;58.00;39.20;;;3.70;99.90;;;;;;5081345;28;20064;-54
2022/01/25 03:38:03;;;;;;;62.05;40.50;;;3.70;99.90;;;;;;5079959;28;20047;-55
2022/01/25 03:40:30;;;;;;;59.25;40.80;;;3.70;99.90;;;;;;5079363;28;20080;-53
2022/01/25 03:42:56;;;;;;;60.08;40.90;;;3.70;99.90;;;;;;5079284;28;20086;-54
2022/01/25 03:45:29;;;;;;;61.42;41.88;;;3.70;99.90;;;;;;5081044;28;20123;-53
2022/01/25 03:49:49;;;;;;;63.05;42.28;;;3.70;99.90;;;;;;5079950;28;20437;-54
2022/01/25 03:50:48;;;;;;;63.08;40.97;;;3.70;99.90;;;;;;5078526;28;20161;-54
2022/01/25 03:53:15;;;;;;;62.83;42.90;;;3.70;99.90;;;;;;5075202;28;20048;-55
2022/01/25 03:55:41;;;;;;;61.08;41.92;;;3.70;99.90;;;;;;5083556;28;20139;-54
2022/01/25 03:58:08;;;;;;;64.35;43.33;;;3.70;99.90;;;;;;5076445;28;20037;-55
2022/01/25 04:00:35;;;;;;;61.50;41.95;;;3.70;99.90;;;;;;5083127;28;20043;-55
2022/01/25 04:03:09;;;;;;;66.35;43.72;;;3.70;99.90;;;;;;5078327;28;20470;-52
2022/01/25 04:05:39;;;;;;;61.10;42.28;;;3.60;99.90;;;;;;5083406;28;20096;-52
2022/01/25 04:08:05;;;;;;;63.85;43.20;;;3.60;99.90;;;;;;5083166;28;20037;-53
2022/01/25 04:10:31;;;;;;;67.13;43.72;;;3.60;99.90;;;;;;5086355;28;20044;-51
2022/01/25 04:12:57;;;;;;;63.50;43.30;;;3.60;99.90;;;;;;5085197;28;20052;-52
2022/01/25 04:15:22;;;;;;;63.50;41.78;;;3.60;99.90;;;;;;5087079;28;20033;-54
2022/01/25 04:17:55;;;;;;;61.80;41.65;;;3.70;99.90;;;;;;5081419;28;20033;-54
2022/01/25 04:20:26;;;;;;;64.35;42.65;;;3.60;99.90;;;;;;5087884;28;20048;-54
2022/01/25 04:25:36;;;;;;;65.90;42.95;;;3.60;99.90;;;;;;5085314;28;20059;-54
2022/01/25 04:28:02;;;;;;;67.90;45.28;;;3.60;99.90;;;;;;5083538;28;20044;-54
2022/01/25 04:30:28;;;;;;;65.50;45.00;;;3.60;99.90;;;;;;5086084;28;20060;-55
2022/01/25 04:33:17;;;;;;;65.72;44.45;;;3.60;99.90;;;;;;5082047;28;20029;-54
2022/01/25 04:35:56;;;;;;;67.65;43.92;;;3.60;99.90;;;;;;5084163;28;20047;-51
2022/01/25 04:49:23;;;;;;;67.93;43.55;;;3.60;99.90;;;;;;5080638;28;20063;-50
2022/01/25 04:51:57;;;;;;;60.38;41.55;;;3.60;99.90;;;;;;5084491;28;20185;-54
2022/01/25 04:59:35;;;;;;;63.08;40.50;;;3.60;99.90;;;;;;5084227;28;20056;-51
2022/01/25 05:02:07;;;;;;;60.85;39.67;;;3.60;99.90;;;;;;5084586;28;20036;-56
2022/01/25 05:04:39;;;;;;;60.75;39.90;;;3.70;99.90;;;;;;5084352;28;20051;-52
2022/01/25 05:07:17;;;;;;;61.85;40.22;;;3.70;99.90;;;;;;5082920;28;20052;-52
2022/01/25 05:09:45;;;;;;;64.32;40.17;;;3.70;99.90;;;;;;5085150;28;20501;-53
2022/01/25 05:12:12;;;;;;;65.85;40.53;;;3.70;99.90;;;;;;5082812;28;20060;-52
2022/01/25 05:14:48;;;;;;;62.30;39.58;;;3.70;99.90;;;;;;5081009;28;20064;-51
2022/01/25 05:17:18;;;;;;;65.75;43.75;;;3.70;99.90;;;;;;5083314;28;20048;-53
2022/01/25 05:22:28;;;;;;;66.75;41.97;;;3.70;99.90;;;;;;5085056;28;20045;-52
2022/01/25 05:24:54;;;;;;;62.95;40.90;;;3.60;99.90;;;;;;5077462;28;20040;-53
2022/01/25 05:27:23;;;;;;;62.95;41.95;;;3.70;99.90;;;;;;5081069;28;20102;-54
2022/01/25 05:29:49;;;;;;;63.85;42.10;;;3.60;99.90;;;;;;5083881;28;20040;-52
2022/01/25 05:32:15;;;;;;;61.25;40.38;;;3.60;99.90;;;;;;5083059;28;20076;-55
2022/01/25 05:34:41;;;;;;;59.58;39.75;;;3.60;99.90;;;;;;5083415;28;20047;-51
2022/01/25 05:37:07;;;;;;;60.78;40.55;;;3.60;99.90;;;;;;5082708;28;20032;-54
2022/01/25 05:39:36;;;;;;;62.83;41.35;;;3.60;99.90;;;;;;5084157;28;20056;-53
2022/01/25 05:42:29;;;;;;;63.72;40.80;;;3.60;99.90;;;;;;5083277;28;20104;-53
2022/01/25 05:44:59;;;;;;;62.47;40.13;;;3.60;99.90;;;;;;5079609;28;20032;-53
2022/01/25 05:47:31;;;;;;;59.85;39.83;;;3.60;99.90;;;;;;5081186;28;20060;-55
2022/01/25 05:49:59;;;;;;;63.38;40.13;;;3.60;99.90;;;;;;5079818;28;20032;-53
2022/01/25 05:52:26;;;;;;;59.58;38.75;;;3.60;99.90;;;;;;5079481;28;20101;-53
2022/01/25 05:54:52;;;;;;;59.63;39.90;;;3.60;99.90;;;;;;5080165;28;20070;-55
2022/01/25 05:57:18;;;;;;;65.85;42.30;;;3.60;99.90;;;;;;5080058;28;20048;-53
2022/01/25 05:59:44;;;;;;;58.13;38.67;;;3.60;99.90;;;;;;5079033;28;20125;-54
2022/01/25 06:02:10;;;;;;;62.47;39.05;;;3.60;99.90;;;;;;5080364;28;20104;-52
2022/01/25 06:04:35;;;;;;;61.53;39.72;;;3.60;99.90;;;;;;5081602;28;20122;-53
2022/01/25 06:07:01;;;;;;;62.03;39.13;;;3.60;99.90;;;;;;5074404;28;20098;-54
2022/01/25 06:09:26;;;;;;;62.28;40.38;;;3.60;99.90;;;;;;5082896;28;20032;-56
2022/01/25 06:11:53;;;;;;;61.42;40.47;;;3.60;99.90;;;;;;5082449;28;20124;-56
2022/01/25 06:14:19;;;;;;;63.95;40.42;;;3.60;99.90;;;;;;5083874;28;20120;-53
2022/01/25 06:16:45;;;;;;;62.65;41.03;;;3.60;99.90;;;;;;5083472;28;20052;-53
2022/01/25 06:19:10;;;;;;;60.95;41.67;;;3.60;99.90;;;;;;5077822;28;20076;-53
2022/01/25 06:21:36;;;;;;;66.03;41.20;;;3.60;99.90;;;;;;5079545;28;20045;-52
2022/01/25 06:24:01;;;;;;;65.60;42.17;;;3.60;99.90;;;;;;5080713;28;21058;-53
2022/01/25 06:26:27;;;;;;;62.17;40.83;;;3.60;99.90;;;;;;5081139;28;20055;-50
2022/01/25 06:28:52;;;;;;;65.63;41.08;;;3.60;99.90;;;;;;5081300;28;20078;-55
2022/01/25 06:31:18;;;;;;;68.13;41.65;;;3.60;99.90;;;;;;5082228;28;20075;-55
2022/01/25 06:33:46;;;;;;;68.28;42.30;;;3.60;99.90;;;;;;5083248;28;20061;-52
2022/01/25 06:36:12;;;;;;;68.35;42.53;;;3.60;99.90;;;;;;5079992;28;20095;-53
2022/01/25 06:38:38;;;;;;;68.68;41.30;;;3.60;99.90;;;;;;5081325;28;20037;-52
2022/01/25 06:41:04;;;;;;;67.43;41.25;;;3.60;99.90;;;;;;5082595;28;20041;-49
2022/01/25 06:43:29;;;;;;;66.50;40.78;;;3.60;99.90;;;;;;5081717;28;20105;-50
2022/01/25 06:45:59;;;;;;;73.65;40.63;;;3.60;99.90;;;;;;5081149;28;20158;-50
2022/01/25 06:48:25;;;;;;;67.18;40.30;;;3.60;99.90;;;;;;5086885;28;20036;-52
2022/01/25 06:50:51;;;;;;;57.35;37.78;;;3.60;99.90;;;;;;5082113;28;20068;-53
2022/01/25 06:53:16;;;;;;;60.42;38.75;;;3.60;99.90;;;;;;5085601;28;20041;-51
2022/01/25 06:55:42;;;;;;;70.68;41.30;;;3.60;99.90;;;;;;5085321;28;20035;-56
2022/01/25 06:58:08;;;;;;;65.68;39.72;;;3.60;99.90;;;;;;5084108;28;20035;-52
2022/01/25 07:00:34;;;;;;;73.82;42.92;;;3.60;99.90;;;;;;5081169;28;20035;-55
2022/01/25 07:02:59;;;;;;;64.00;40.58;;;3.60;99.90;;;;;;5083267;28;20032;-54
2022/01/25 07:05:25;;;;;;;66.22;40.90;;;3.70;99.90;;;;;;5083207;28;20045;-51
2022/01/25 07:07:52;;;;;;;67.22;42.40;;;3.70;99.90;;;;;;5085212;28;20032;-51
2022/01/25 07:10:18;;;;;;;64.03;41.45;;;3.60;99.90;;;;;;5084930;28;20039;-53
2022/01/25 07:12:44;;;;;;;67.30;40.65;;;3.60;99.90;;;;;;5084319;28;20044;-53
2022/01/25 07:15:10;;;;;;;68.13;39.00;;;3.60;99.90;;;;;;5085209;28;20056;-51
2022/01/25 07:17:36;;;;;;;65.63;39.85;;;3.60;99.90;;;;;;5085341;28;20037;-52
2022/01/25 07:20:04;;;;;;;66.93;40.63;;;3.60;99.90;;;;;;5078844;28;20461;-55
2022/01/25 07:22:29;;;;;;;65.93;40.35;;;3.60;99.90;;;;;;5080569;28;20028;-52
2022/01/25 07:24:55;;;;;;;65.70;40.90;;;3.60;99.90;;;;;;5082400;28;20055;-52
2022/01/25 07:27:20;;;;;;;66.47;41.05;;;3.60;99.90;;;;;;5083429;28;20037;-50
2022/01/25 07:29:46;;;;;;;60.80;40.45;;;3.60;99.90;;;;;;5080339;28;20812;-50
2022/01/25 07:32:11;;;;;;;63.83;40.22;;;3.60;99.90;;;;;;5082906;28;20845;-49
2022/01/25 07:34:37;;;;;;;64.13;39.30;;;3.60;99.90;;;;;;5080235;28;20025;-51
2022/01/25 07:37:02;;;;;;;64.05;41.55;;;3.60;99.90;;;;;;5082487;28;20392;-53
2022/01/25 07:39:28;;;;;;;67.55;41.88;;;3.60;99.90;;;;;;5078791;28;20032;-53
2022/01/25 07:41:57;;;;;;;61.25;39.97;;;3.60;99.90;;;;;;5081592;28;20616;-49
2022/01/25 07:44:27;;;;;;;64.68;40.90;;;3.70;99.90;;;;;;5081151;28;20040;-54
2022/01/25 07:46:53;;;;;;;64.15;39.90;;;3.60;99.90;;;;;;5085035;28;20086;-50
2022/01/25 07:49:19;;;;;;;68.97;41.33;;;3.60;99.90;;;;;;5080575;28;20052;-52
2022/01/25 07:51:44;;;;;;;69.20;41.75;;;3.70;99.90;;;;;;5085358;28;20040;-53
2022/01/25 07:54:10;;;;;;;68.95;40.05;;;3.70;99.90;;;;;;5085837;28;20045;-50
2022/01/25 07:56:36;;;;;;;66.50;40.42;;;3.70;99.90;;;;;;5080334;28;20150;-50
2022/01/25 07:59:02;;;;;;;64.65;39.65;;;3.70;99.90;;;;;;5089780;28;20048;-50
2022/01/25 08:01:27;;;;;;;64.30;41.20;;;3.70;99.90;;;;;;5083597;28;20028;-51
2022/01/25 08:03:53;;;;;;;68.82;40.38;;;3.70;99.90;;;;;;5080869;28;20040;-54
2022/01/25 08:06:20;;;;;;;63.03;40.85;;;3.70;99.90;;;;;;5079897;28;20111;-52
2022/01/25 08:08:46;;;;;;;67.68;41.42;;;3.70;99.90;;;;;;5086200;28;20044;-51
2022/01/25 08:11:12;;;;;;;63.55;40.28;;;3.70;99.90;;;;;;5082128;28;20390;-53
2022/01/25 08:13:44;;;;;;;66.47;41.17;;;3.70;99.90;;;;;;5083732;28;20044;-50
2022/01/25 08:16:10;;;;;;;62.60;39.95;;;3.70;99.90;;;;;;5078160;28;20093;-51
2022/01/25 08:18:35;;;;;;;63.70;41.17;;;3.70;99.90;;;;;;5081233;28;20068;-52
2022/01/25 08:21:01;;;;;;;67.05;39.83;;;3.70;99.90;;;;;;5082030;28;20119;-53
2022/01/25 08:23:26;;;;;;;65.63;40.10;;;3.80;99.90;;;;;;5082497;28;20056;-51
2022/01/25 08:25:52;;;;;;;66.38;41.05;;;3.80;99.90;;;;;;5086842;28;20075;-49
2022/01/25 08:28:18;;;;;;;66.60;40.40;;;3.80;99.90;;;;;;5081517;28;20103;-50
2022/01/25 08:30:43;;;;;;;59.95;37.85;;;3.80;99.90;;;;;;5082475;28;20080;-52
2022/01/25 08:33:09;;;;;;;64.53;39.70;;;3.80;99.90;;;;;;5081286;28;20044;-50
2022/01/25 08:35:35;;;;;;;67.72;40.58;;;3.80;99.90;;;;;;5077030;28;20040;-49
2022/01/25 08:38:00;;;;;;;68.40;41.70;;;3.80;99.90;;;;;;5091577;28;20043;-51
2022/01/25 08:40:26;;;;;;;68.82;41.70;;;3.80;99.90;;;;;;5080937;28;20052;-53
2022/01/25 08:42:51;;;;;;;65.78;40.30;;;3.80;99.90;;;;;;5081714;28;20040;-49
2022/01/25 08:45:17;;;;;;;67.72;40.72;;;3.80;99.90;;;;;;5075681;28;20115;-53
2022/01/25 08:47:43;;;;;;;67.97;41.60;;;3.80;99.90;;;;;;5087539;28;20106;-50
2022/01/25 08:50:09;;;;;;;66.47;40.33;;;3.90;99.90;;;;;;5091663;28;20039;-52
2022/01/25 08:52:38;;;;;;;71.65;41.85;;;3.90;99.90;;;;;;5080146;28;20043;-51
2022/01/25 08:55:05;;;;;;;67.10;41.55;;;3.80;99.90;;;;;;5085602;28;20079;-54
2022/01/25 08:57:31;;;;;;;69.03;40.70;;;3.90;99.90;;;;;;5079075;28;20045;-49
2022/01/25 08:59:56;;;;;;;67.00;41.67;;;3.90;99.90;;;;;;5092114;28;20036;-50
2022/01/25 09:02:22;;;;;;;69.25;41.15;;;3.90;99.90;;;;;;5089872;28;20407;-49
2022/01/25 09:04:47;;;;;;;63.67;39.05;;;3.90;99.90;;;;;;5095921;28;20108;-49
2022/01/25 09:07:13;;;;;;;66.68;40.00;;;3.90;99.90;;;;;;5088742;28;20104;-53
2022/01/25 09:09:40;;;;;;;62.55;40.15;;;3.90;99.90;;;;;;5090183;28;20052;-52
2022/01/25 09:12:06;;;;;;;66.40;41.17;;;3.90;99.90;;;;;;5088387;28;20053;-51
2022/01/25 09:14:32;;;;;;;65.25;41.13;;;3.90;99.90;;;;;;5090287;28;20475;-54
2022/01/25 09:16:58;;;;;;;67.82;41.60;;;4.00;99.90;;;;;;5090921;28;20052;-50
2022/01/25 09:19:23;;;;;;;64.38;39.85;;;4.00;99.90;;;;;;5078820;28;20081;-51
2022/01/25 09:21:49;;;;;;;63.45;40.88;;;4.00;99.90;;;;;;5086163;28;20033;-52
2022/01/25 09:24:15;;;;;;;65.93;40.92;;;4.00;99.90;;;;;;5088082;28;20055;-54
2022/01/25 09:26:40;;;;;;;63.00;38.65;;;4.00;99.90;;;;;;5084070;28;20036;-49
2022/01/25 09:29:06;;;;;;;69.18;40.47;;;4.00;99.90;;;;;;5086502;28;20103;-52
2022/01/25 09:31:32;;;;;;;66.15;40.67;;;4.10;99.90;;;;;;5087132;28;20542;-51
2022/01/25 09:33:58;;;;;;;64.38;40.30;;;4.10;99.90;;;;;;5087979;28;20055;-53
2022/01/25 09:36:24;;;;;;;66.38;41.55;;;4.10;99.90;;;;;;5081922;28;20040;-51
2022/01/25 09:38:51;;;;;;;68.05;40.92;;;4.10;99.90;;;;;;5077598;28;20041;-50
2022/01/25 09:41:17;;;;;;;65.72;41.17;;;4.10;99.90;;;;;;5082576;28;20033;-53
2022/01/25 09:43:43;;;;;;;63.55;39.53;;;4.10;99.90;;;;;;5087195;28;20611;-49
2022/01/25 09:46:08;;;;;;;64.53;40.03;;;4.10;99.90;;;;;;5087160;28;20490;-51
2022/01/25 09:48:34;;;;;;;65.60;40.70;;;4.10;99.90;;;;;;5081534;28;20046;-54
2022/01/25 09:51:00;;;;;;;68.78;42.80;;;4.10;99.90;;;;;;5083191;28;20064;-53
2022/01/25 09:53:26;;;;;;;64.88;41.22;;;4.10;99.90;;;;;;5093086;28;20609;-52
2022/01/25 09:55:52;;;;;;;69.00;42.92;;;4.10;99.90;;;;;;5091571;28;20048;-53
2022/01/25 09:58:18;;;;;;;68.20;41.97;;;4.10;99.90;;;;;;5093529;28;20048;-54
2022/01/25 10:00:46;;;;;;;66.85;41.05;;;4.10;99.90;;;;;;5090981;28;20045;-54
2022/01/25 10:03:26;;;;;;;65.10;41.47;;;4.20;99.90;;;;;;5086401;28;20064;-54
2022/01/25 10:05:55;;;;;;;68.95;40.97;;;4.20;99.90;;;;;;5080152;28;20040;-55
2022/01/25 10:08:26;;;;;;;71.03;41.15;;;4.20;99.90;;;;;;5088611;28;20036;-52
2022/01/25 10:11:14;;;;;;;72.38;41.15;;;4.20;99.90;;;;;;5080768;28;20059;-54
2022/01/25 10:13:47;;;;;;;68.57;42.20;;;4.20;99.90;;;;;;5089528;28;20108;-50
2022/01/25 10:16:28;;;;;;;66.93;40.80;;;4.20;99.90;;;;;;5088956;28;20052;-50
2022/01/25 10:18:59;;;;;;;64.43;40.40;;;4.20;99.90;;;;;;5078356;28;20094;-52
2022/01/25 10:21:28;;;;;;;66.40;41.03;;;4.20;99.90;;;;;;5075972;28;20072;-51
2022/01/25 10:24:14;;;;;;;67.82;40.08;;;4.20;99.90;;;;;;5086565;28;20021;-52
2022/01/25 10:26:50;;;;;;;66.97;41.92;;;4.20;99.90;;;;;;5082327;28;20032;-50
2022/01/25 10:29:18;;;;;;;66.55;42.88;;;4.20;99.90;;;;;;5088937;28;20064;-52
2022/01/25 10:31:50;;;;;;;67.55;41.45;;;4.20;99.90;;;;;;5084590;28;20040;-51
2022/01/25 10:34:22;;;;;;;63.63;41.25;;;4.30;99.90;;;;;;5078560;28;20059;-53
2022/01/25 10:36:49;;;;;;;64.75;40.40;;;4.20;99.90;;;;;;5086339;28;20055;-51
2022/01/25 10:39:26;;;;;;;67.73;41.27;;;4.20;99.90;;;;;;5092236;28;20054;-53
2022/01/25 10:42:01;;;;;;;64.38;40.05;;;4.20;99.90;;;;;;5084202;28;20032;-50
2022/01/25 10:44:56;;;;;;;64.70;41.53;;;4.20;99.90;;;;;;5092948;28;20042;-50
2022/01/25 10:47:51;;;;;;;67.57;42.05;;;4.30;99.90;;;;;;5088965;28;20048;-49
2022/01/25 10:50:21;;;;;;;71.15;41.08;;;4.30;99.90;;;;;;5092649;28;20075;-53
2022/01/25 10:53:01;;;;;;;70.38;41.90;;;4.30;99.90;;;;;;5092055;28;20169;-53
2022/01/25 10:55:39;;;;;;;67.72;41.38;;;4.30;99.90;;;;;;5085377;28;20037;-52
2022/01/25 10:58:05;;;;;;;66.85;40.83;;;4.30;99.90;;;;;;5079247;28;20071;-53
2022/01/25 11:00:38;;;;;;;65.68;41.55;;;4.30;99.90;;;;;;5083311;28;20041;-52
2022/01/25 11:03:04;;;;;;;69.95;41.08;;;4.30;99.90;;;;;;5089736;28;20043;-53
2022/01/25 11:05:36;;;;;;;68.55;41.20;;;4.30;99.90;;;;;;5088247;28;20054;-53
2022/01/25 11:08:21;;;;;;;66.88;41.58;;;4.30;99.90;;;;;;5076115;28;20025;-50
2022/01/25 11:10:54;;;;;;;68.25;42.38;;;4.30;99.90;;;;;;5083226;28;20097;-52
2022/01/25 11:15:59;;;;;;;73.68;40.47;;;4.40;99.90;;;;;;5082481;28;20052;-53
2022/01/25 11:18:25;;;;;;;67.35;42.03;;;4.40;99.90;;;;;;5081486;28;20589;-51
2022/01/25 11:20:52;;;;;;;67.88;43.00;;;4.40;99.90;;;;;;5091718;28;20044;-54
2022/01/25 11:23:18;;;;;;;67.85;41.42;;;4.40;99.90;;;;;;5091296;28;20037;-53
2022/01/25 11:25:46;;;;;;;66.47;41.30;;;4.30;99.90;;;;;;5078744;28;20044;-51
2022/01/25 11:28:13;;;;;;;70.20;41.65;;;4.30;99.90;;;;;;5090768;28;20036;-52
2022/01/25 11:30:40;;;;;;;67.40;40.40;;;4.40;99.90;;;;;;5086018;28;20051;-50
2022/01/25 11:33:09;;;;;;;68.45;40.35;;;4.30;99.90;;;;;;5071911;28;20041;-52
2022/01/25 11:35:36;;;;;;;71.65;41.00;;;4.30;99.90;;;;;;5071942;28;20037;-49
2022/01/25 11:38:01;;;;;;;65.82;39.72;;;4.30;99.90;;;;;;5073870;28;20436;-49
2022/01/25 11:40:59;;;;;;;71.22;42.20;;;4.30;99.90;;;;;;5091505;28;20087;-51
2022/01/25 11:43:25;;;;;;;65.55;40.50;;;4.40;99.90;;;;;;5070137;28;20140;-49
2022/01/25 11:46:00;;;;;;;73.03;41.63;;;4.40;99.90;;;;;;5088677;28;20121;-51
2022/01/25 11:48:36;;;;;;;71.70;40.60;;;4.40;99.90;;;;;;5086115;28;20056;-51
2022/01/25 11:51:10;;;;;;;63.05;39.28;;;4.40;99.90;;;;;;5091779;28;20049;-49
2022/01/25 11:53:41;;;;;;;68.25;40.13;;;4.40;99.90;;;;;;5091555;28;20048;-48
2022/01/25 11:56:09;;;;;;;69.50;40.70;;;4.40;99.90;;;;;;5090429;28;20040;-50
2022/01/25 11:58:36;;;;;;;68.43;40.83;;;4.40;99.90;;;;;;5090963;28;20060;-51
2022/01/25 12:01:04;;;;;;;65.35;38.70;;;4.50;99.90;;;;;;5091786;28;20059;-51
2022/01/25 12:03:31;;;;;;;65.22;40.03;;;4.50;99.90;;;;;;5085920;28;20033;-51
2022/01/25 12:06:20;;;;;;;66.10;40.05;;;4.60;99.90;;;;;;5077690;28;20072;-49
2022/01/25 12:14:22;;;;;;;64.00;39.45;;;4.60;99.90;;;;;;5070842;28;20049;-53
2022/01/25 12:16:55;;;;;;;65.90;40.85;;;4.70;99.90;;;;;;5075019;28;20041;-53
2022/01/25 12:19:46;;;;;;;66.13;40.17;;;4.70;99.90;;;;;;5075903;28;20033;-51
2022/01/25 12:22:49;;;;;;;67.40;39.78;;;4.70;99.90;;;;;;5079824;28;20079;-50
2022/01/25 12:26:09;;;;;;;62.28;37.65;;;4.70;99.90;;;;;;5075718;28;20044;-52
2022/01/25 12:28:28;;;;;;;67.38;38.55;;;4.70;99.90;;;;;;5077522;28;20075;-50
2022/01/25 12:30:58;;;;;;;67.72;37.72;;;4.70;99.90;;;;;;5086569;28;20048;-49
2022/01/25 12:33:29;;;;;;;68.63;39.03;;;4.70;99.90;;;;;;5089237;28;20104;-51
2022/01/25 12:36:01;;;;;;;68.78;39.67;;;4.80;99.90;;;;;;5095702;28;20076;-51
2022/01/25 12:38:38;;;;;;;63.30;37.58;;;4.80;99.90;;;;;;5089010;28;20044;-50
2022/01/25 12:41:17;;;;;;;63.80;38.22;;;4.80;99.90;;;;;;5093853;28;20046;-50
2022/01/25 12:43:53;;;;;;;65.50;39.10;;;4.80;99.90;;;;;;5095039;28;20047;-52
2022/01/25 12:46:33;;;;;;;68.68;39.83;;;4.80;99.90;;;;;;5094086;28;20049;-49
2022/01/25 12:49:06;;;;;;;65.85;39.30;;;4.80;99.90;;;;;;5094292;28;20118;-49
2022/01/25 12:51:35;;;;;;;64.90;37.58;;;4.80;99.90;;;;;;5094688;28;20059;-51
2022/01/25 12:54:06;;;;;;;67.47;40.47;;;4.80;99.90;;;;;;5092357;28;20051;-50
2022/01/25 12:56:42;;;;;;;64.80;39.00;;;4.80;99.90;;;;;;5094362;28;20033;-49
2022/01/25 12:59:13;;;;;;;65.90;39.33;;;4.80;99.90;;;;;;5092598;28;20071;-51
2022/01/25 13:01:41;;;;;;;63.83;39.60;;;4.80;99.90;;;;;;5074788;28;20048;-49
2022/01/25 13:04:08;;;;;;;63.78;39.25;;;4.70;99.90;;;;;;5076099;28;20124;-52
2022/01/25 13:06:37;;;;;;;62.20;37.45;;;4.70;99.90;;;;;;5074300;28;20039;-52
2022/01/25 13:11:48;;;;;;;66.47;35.92;;;4.70;99.90;;;;;;5077825;28;19920;-50
2022/01/25 13:16:58;;;;;;;66.82;37.60;;;4.70;99.90;;;;;;5073893;28;20045;-53
2022/01/25 13:19:38;;;;;;;64.25;37.45;;;4.70;99.90;;;;;;5073797;28;20086;-49
2022/01/25 13:22:19;;;;;;;67.53;36.63;;;4.70;99.90;;;;;;5073453;28;20053;-50
2022/01/25 13:24:59;;;;;;;63.90;37.10;;;4.70;99.90;;;;;;5073465;28;20086;-50
2022/01/25 13:27:30;;;;;;;61.33;35.75;;;4.70;99.90;;;;;;5072587;28;20045;-53
2022/01/25 13:32:47;;;;;;;65.82;37.13;;;4.70;99.90;;;;;;5093873;28;20088;-49
2022/01/25 13:35:21;;;;;;;62.63;37.28;;;4.70;99.90;;;;;;5094634;28;20037;-49
2022/01/25 13:38:02;;;;;;;67.57;36.00;;;4.70;99.90;;;;;;5086014;28;20052;-52
2022/01/25 13:40:35;;;;;;;66.05;37.10;;;4.70;99.90;;;;;;5074154;28;20147;-51
2022/01/25 13:43:29;;;;;;;66.88;36.58;;;4.70;99.90;;;;;;5088398;28;20169;-51
2022/01/25 13:45:58;;;;;;;59.53;35.88;;;4.70;99.90;;;;;;5093257;28;20105;-51
2022/01/25 13:48:27;;;;;;;59.17;35.63;;;4.70;99.90;;;;;;5086858;28;20045;-53
2022/01/25 13:51:10;;;;;;;62.85;36.35;;;4.70;99.90;;;;;;5073472;28;20064;-50
2022/01/25 13:53:37;;;;;;;60.65;36.25;;;4.70;99.90;;;;;;5078967;28;20036;-51
2022/01/25 13:56:04;;;;;;;62.08;35.75;;;4.70;99.90;;;;;;5073688;28;20045;-50
2022/01/25 13:58:33;;;;;;;63.03;36.90;;;4.70;99.90;;;;;;5073180;28;20118;-54
2022/01/25 14:01:04;;;;;;;60.47;35.63;;;4.70;99.90;;;;;;5073471;28;20045;-48
2022/01/25 14:03:38;;;;;;;62.85;36.45;;;4.70;99.90;;;;;;5083522;28;20071;-50
2022/01/25 14:06:24;;;;;;;60.15;36.08;;;4.60;99.90;;;;;;5093703;28;20086;-52
2022/01/25 14:08:51;;;;;;;62.28;35.95;;;4.70;99.90;;;;;;5090463;28;20047;-52
2022/01/25 14:25:39;;;;;;;59.78;34.78;;;4.60;99.90;;;;;;5074313;28;20159;-51
2022/01/25 14:28:10;;;;;;;61.13;35.08;;;4.60;99.90;;;;;;5092086;28;20055;-50
2022/01/25 14:30:39;;;;;;;59.58;34.67;;;4.60;99.90;;;;;;5092909;28;20068;-50
2022/01/25 14:33:14;;;;;;;61.28;34.92;;;4.60;99.90;;;;;;5083329;28;20040;-53
2022/01/25 14:35:49;;;;;;;57.33;34.47;;;4.50;99.90;;;;;;5072546;28;20124;-50
2022/01/25 14:38:22;;;;;;;65.18;35.15;;;4.50;99.90;;;;;;5072156;28;20055;-51